createdAt,value
2018-07-11T00:03:49.880Z,97.00
2018-07-11T00:06:22.496Z,96.90
2018-07-11T00:08:54.059Z,96.90
2018-07-11T00:11:26.063Z,96.90
2018-07-11T00:16:29.560Z,96.90
2018-07-11T00:19:00.941Z,97.10
2018-07-11T00:37:25.684Z,97.60
2018-07-11T00:39:57.213Z,97.90
2018-07-11T00:42:28.922Z,97.70
2018-07-11T00:45:00.778Z,97.50
2018-07-11T00:47:32.594Z,97.80
2018-07-11T00:50:03.909Z,97.80
2018-07-11T00:52:36.560Z,97.90
2018-07-11T00:55:08.114Z,97.90
2018-07-11T00:57:42.133Z,98.20
2018-07-11T01:00:13.607Z,98.50
2018-07-11T01:02:45.506Z,98.60
2018-07-11T01:05:17.012Z,98.80
2018-07-11T01:07:48.514Z,99.10
2018-07-11T01:10:20.461Z,99.50
2018-07-11T01:12:51.903Z,99.70
2018-07-11T01:15:23.829Z,99.90
2018-07-11T01:18:05.414Z,99.90
2018-07-11T01:20:36.939Z,99.90
2018-07-11T01:23:08.954Z,99.90
2018-07-11T01:25:40.247Z,99.90
2018-07-11T01:28:12.278Z,99.90
2018-07-11T01:33:14.353Z,99.90
2018-07-11T01:35:45.731Z,99.90
2018-07-11T01:40:47.815Z,99.90
2018-07-11T01:43:19.100Z,99.90
2018-07-11T01:45:50.495Z,99.90
2018-07-11T01:48:22.050Z,99.90
2018-07-11T01:50:54.151Z,99.90
2018-07-11T01:53:25.823Z,99.90
2018-07-11T01:56:07.226Z,99.90
2018-07-11T02:01:44.089Z,99.90
2018-07-11T02:04:36.132Z,99.90
2018-07-11T02:07:08.670Z,99.90
2018-07-11T02:09:40.234Z,99.90
2018-07-11T02:12:21.681Z,99.90
2018-07-11T02:14:58.500Z,99.90
2018-07-11T02:17:29.956Z,99.90
2018-07-11T02:20:07.348Z,99.90
2018-07-11T02:22:40.395Z,99.90
2018-07-11T02:25:13.404Z,99.90
2018-07-11T02:27:46.319Z,99.90
2018-07-11T02:30:18.510Z,99.90
2018-07-11T02:32:50.000Z,99.90
2018-07-11T02:35:21.617Z,99.90
2018-07-11T02:38:53.062Z,99.90
2018-07-11T02:41:26.857Z,99.90
2018-07-11T02:43:58.577Z,99.90
2018-07-11T02:46:35.223Z,99.90
2018-07-11T02:49:06.814Z,99.90
2018-07-11T02:51:53.389Z,99.90
2018-07-11T02:57:01.632Z,99.90
2018-07-11T02:59:33.158Z,99.90
2018-07-11T03:02:04.603Z,99.90
2018-07-11T03:04:35.940Z,99.90
2018-07-11T03:07:08.190Z,99.90
2018-07-11T03:09:41.763Z,99.90
2018-07-11T03:12:13.476Z,99.90
2018-07-11T03:14:50.284Z,99.90
2018-07-11T03:17:22.733Z,99.90
2018-07-11T03:19:54.062Z,99.90
2018-07-11T03:22:25.506Z,99.90
2018-07-11T03:27:28.243Z,99.90
2018-07-11T03:30:04.705Z,99.90
2018-07-11T03:32:40.649Z,99.90
2018-07-11T03:35:12.374Z,99.90
2018-07-11T03:37:43.951Z,99.90
2018-07-11T03:40:26.950Z,99.90
2018-07-11T03:43:09.577Z,99.90
2018-07-11T03:45:41.455Z,99.90
2018-07-11T03:50:44.252Z,99.90
2018-07-11T03:53:16.351Z,99.90
2018-07-11T03:56:22.116Z,99.90
2018-07-11T03:58:59.544Z,99.90
2018-07-11T04:01:32.375Z,99.90
2018-07-11T04:04:58.083Z,99.90
2018-07-11T04:08:12.663Z,99.90
2018-07-11T04:10:48.865Z,99.90
2018-07-11T04:13:29.885Z,99.90
2018-07-11T04:16:14.786Z,99.90
2018-07-11T04:19:12.270Z,99.90
2018-07-11T04:21:57.504Z,99.90
2018-07-11T04:25:04.378Z,99.90
2018-07-11T04:28:34.016Z,99.90
2018-07-11T04:31:27.447Z,99.90
2018-07-11T04:34:04.187Z,99.90
2018-07-11T04:39:20.701Z,99.90
2018-07-11T04:41:54.653Z,99.90
2018-07-11T04:44:37.636Z,99.90
2018-07-11T04:47:14.101Z,99.90
2018-07-11T04:49:45.779Z,99.90
2018-07-11T04:54:50.612Z,99.90
2018-07-11T04:57:22.322Z,99.90
2018-07-11T04:59:53.936Z,99.90
2018-07-11T05:02:25.475Z,99.90
2018-07-11T05:07:55.003Z,99.90
2018-07-11T05:10:28.590Z,99.90
2018-07-11T05:13:12.239Z,99.90
2018-07-11T05:15:47.456Z,99.90
2018-07-11T05:18:19.187Z,99.90
2018-07-11T05:20:50.754Z,99.90
2018-07-11T05:23:33.570Z,99.90
2018-07-11T05:26:05.594Z,99.90
2018-07-11T05:28:38.034Z,99.90
2018-07-11T05:31:12.216Z,99.90
2018-07-11T05:33:43.755Z,99.90
2018-07-11T05:36:15.551Z,99.90
2018-07-11T05:38:47.433Z,99.90
2018-07-11T05:41:19.734Z,99.90
2018-07-11T05:43:51.423Z,99.90
2018-07-11T05:46:22.988Z,99.90
2018-07-11T05:48:55.384Z,99.90
2018-07-11T05:52:26.202Z,99.90
2018-07-11T05:55:43.996Z,99.90
2018-07-11T06:02:32.053Z,99.90
2018-07-11T06:05:07.803Z,99.90
2018-07-11T06:07:46.398Z,99.90
2018-07-11T06:10:18.037Z,99.90
2018-07-11T06:12:50.467Z,99.90
2018-07-11T06:15:37.801Z,99.90
2018-07-11T06:18:25.401Z,99.90
2018-07-11T06:20:56.877Z,99.90
2018-07-11T06:23:43.459Z,99.90
2018-07-11T06:26:19.124Z,99.90
2018-07-11T06:28:50.650Z,99.90
2018-07-11T06:31:22.541Z,99.90
2018-07-11T06:33:59.439Z,99.90
2018-07-11T06:36:30.934Z,99.90
2018-07-11T06:39:02.493Z,99.90
2018-07-11T06:41:34.006Z,99.90
2018-07-11T06:45:24.562Z,99.90
2018-07-11T06:47:58.880Z,99.90
2018-07-11T06:50:30.326Z,99.90
2018-07-11T06:53:01.867Z,99.90
2018-07-11T06:55:33.302Z,99.90
2018-07-11T06:58:40.019Z,99.90
2018-07-11T07:01:15.575Z,99.90
2018-07-11T07:03:47.098Z,99.90
2018-07-11T07:06:19.916Z,99.90
2018-07-11T07:08:51.530Z,99.90
2018-07-11T07:11:23.107Z,99.90
2018-07-11T07:13:54.640Z,99.90
2018-07-11T07:16:26.062Z,99.90
2018-07-11T07:18:57.719Z,99.90
2018-07-11T07:21:29.313Z,99.90
2018-07-11T07:24:00.977Z,99.90
2018-07-11T07:26:32.646Z,99.90
2018-07-11T07:29:04.134Z,99.90
2018-07-11T07:34:07.265Z,99.90
2018-07-11T12:31:22.278Z,99.90
2018-07-11T12:33:54.230Z,92.20
2018-07-11T12:36:52.598Z,93.30
2018-07-11T13:09:00.016Z,94.50
2018-07-11T13:11:36.819Z,93.30
2018-07-11T13:14:08.575Z,93.20
2018-07-11T13:16:40.613Z,94.20
2018-07-11T13:19:12.047Z,93.60
2018-07-11T13:21:43.691Z,92.70
2018-07-11T13:24:15.427Z,93.40
2018-07-11T13:26:47.041Z,94.00
2018-07-11T13:29:19.198Z,93.20
2018-07-11T13:31:50.863Z,92.90
2018-07-11T13:34:22.716Z,92.50
2018-07-11T13:36:54.142Z,92.90
2018-07-11T13:39:26.226Z,93.10
2018-07-11T13:41:58.206Z,93.20
2018-07-11T13:44:29.670Z,93.50
2018-07-11T13:47:01.263Z,93.60
2018-07-11T13:49:33.030Z,93.90
2018-07-11T13:52:05.487Z,93.90
2018-07-11T13:54:37.231Z,93.50
2018-07-11T13:57:08.988Z,93.60
2018-07-11T13:59:40.851Z,94.40
2018-07-11T14:02:12.489Z,94.40
2018-07-11T14:04:43.899Z,94.80
2018-07-11T14:07:15.897Z,95.40
2018-07-11T14:09:47.644Z,94.60
2018-07-11T14:14:50.141Z,94.70
2018-07-11T14:17:21.670Z,94.80
2018-07-11T14:19:53.053Z,95.10
2018-07-11T14:22:24.620Z,96.00
2018-07-11T14:24:56.639Z,96.20
2018-07-11T14:27:29.169Z,96.40
2018-07-11T14:30:03.297Z,96.20
2018-07-11T14:32:35.064Z,96.70
2018-07-11T14:35:06.903Z,95.50
2018-07-11T14:37:39.414Z,95.90
2018-07-11T14:40:11.783Z,95.90
2018-07-11T14:42:44.492Z,95.80
2018-07-11T14:48:02.437Z,96.40
2018-07-11T14:50:34.107Z,96.40
2018-07-11T14:53:06.804Z,96.40
2018-07-11T14:55:38.372Z,96.90
2018-07-11T14:58:09.997Z,96.60
2018-07-11T15:00:41.640Z,97.30
2018-07-11T15:03:13.114Z,97.60
2018-07-11T15:05:44.802Z,97.60
2018-07-11T15:08:16.688Z,97.50
2018-07-11T15:10:48.316Z,97.60
2018-07-11T15:13:19.889Z,97.70
2018-07-11T15:15:51.454Z,97.40
2018-07-11T15:18:22.918Z,97.70
2018-07-11T15:23:26.026Z,97.30
2018-07-11T15:25:57.875Z,97.20
2018-07-11T15:28:29.443Z,97.40
2018-07-11T15:31:01.037Z,97.40
2018-07-11T15:33:33.780Z,97.90
2018-07-11T15:36:05.650Z,98.30
2018-07-11T15:38:37.278Z,98.50
2018-07-11T15:41:09.342Z,98.70
2018-07-11T15:43:43.066Z,98.80
2018-07-11T15:46:14.875Z,98.10
2018-07-11T15:53:01.643Z,98.80
2018-07-11T15:55:35.191Z,98.60
2018-07-11T15:58:15.384Z,98.50
2018-07-11T16:00:47.295Z,98.80
2018-07-11T16:03:20.655Z,98.40
2018-07-11T16:05:52.830Z,99.20
2018-07-11T16:08:29.018Z,99.40
2018-07-11T16:11:04.276Z,99.30
2018-07-11T16:13:37.129Z,99.60
2018-07-11T16:16:21.603Z,99.40
2018-07-11T16:18:53.363Z,99.70
2018-07-11T16:21:45.029Z,99.80
2018-07-11T16:26:49.771Z,99.90
2018-07-11T16:29:21.457Z,99.90
2018-07-11T16:31:52.970Z,99.90
2018-07-11T16:34:24.770Z,99.90
2018-07-11T16:36:56.676Z,99.90
2018-07-11T16:39:28.520Z,99.90
2018-07-11T16:42:00.798Z,99.90
2018-07-11T16:44:33.109Z,99.90
2018-07-11T16:47:06.282Z,99.90
2018-07-11T16:49:41.939Z,99.90
2018-07-11T16:52:13.824Z,99.90
2018-07-11T16:54:56.368Z,99.90
2018-07-11T16:57:35.606Z,99.90
2018-07-11T17:00:09.691Z,99.90
2018-07-11T17:02:44.863Z,99.90
2018-07-11T17:05:22.769Z,99.90
2018-07-11T17:08:00.662Z,99.90
2018-07-11T17:10:32.966Z,99.90
2018-07-11T17:13:14.385Z,99.90
2018-07-11T17:15:51.199Z,99.90
2018-07-11T17:18:48.959Z,99.90
2018-07-11T17:21:58.204Z,99.90
2018-07-11T17:24:30.803Z,99.90
2018-07-11T17:27:02.680Z,99.90
2018-07-11T17:29:34.547Z,99.90
2018-07-11T17:34:41.660Z,99.90
2018-07-11T17:37:13.424Z,99.90
2018-07-11T17:39:57.347Z,99.90
2018-07-11T17:42:30.395Z,99.90
2018-07-11T17:45:17.783Z,99.90
2018-07-11T17:50:06.138Z,99.90
2018-07-11T17:52:54.594Z,99.90
2018-07-11T17:55:36.161Z,99.90
2018-07-11T18:00:46.786Z,99.90
2018-07-11T18:07:29.327Z,99.90
2018-07-11T18:10:07.835Z,99.90
2018-07-11T18:15:12.073Z,99.90
2018-07-11T18:20:19.518Z,99.90
2018-07-11T18:23:12.709Z,99.90
2018-07-11T18:26:07.442Z,99.90
2018-07-11T18:28:52.450Z,99.90
2018-07-11T18:32:09.972Z,99.90
2018-07-11T18:37:02.530Z,99.90
2018-07-11T18:39:47.210Z,99.90
2018-07-11T18:42:54.102Z,99.90
2018-07-11T18:45:44.920Z,99.90
2018-07-11T18:49:32.279Z,99.90
2018-07-11T18:54:29.807Z,99.90
2018-07-11T19:05:13.516Z,99.90
2018-07-11T19:07:59.229Z,99.90
2018-07-11T19:11:48.333Z,99.90
2018-07-11T19:14:37.376Z,99.90
2018-07-11T19:17:37.847Z,99.90
2018-07-11T19:20:32.787Z,99.90
2018-07-11T19:33:16.385Z,99.90
2018-07-11T19:36:13.707Z,99.90
2018-07-11T19:39:02.882Z,99.90
2018-07-11T19:43:52.793Z,99.90
2018-07-11T19:47:22.197Z,99.90
2018-07-11T19:51:12.714Z,99.90
2018-07-11T19:54:00.971Z,99.90
2018-07-11T19:56:48.911Z,99.90
2018-07-11T19:59:20.327Z,99.90
2018-07-11T20:01:51.747Z,99.90
2018-07-11T20:04:23.325Z,99.90
2018-07-11T20:06:55.030Z,99.90
2018-07-11T20:09:26.698Z,99.90
2018-07-11T20:11:58.909Z,99.90
2018-07-11T20:14:31.177Z,99.90
2018-07-11T20:17:02.946Z,99.90
2018-07-11T20:19:34.524Z,99.90
2018-07-11T20:22:06.015Z,99.90
2018-07-11T20:24:37.605Z,99.90
2018-07-11T20:27:31.865Z,99.90
2018-07-11T20:30:04.165Z,99.90
2018-07-11T20:32:36.348Z,99.90
2018-07-11T20:35:08.043Z,99.90
2018-07-11T20:37:39.932Z,99.90
2018-07-11T20:40:11.493Z,99.90
2018-07-11T20:42:43.002Z,99.90
2018-07-11T20:47:49.360Z,99.90
2018-07-11T20:50:21.723Z,99.90
2018-07-11T20:52:58.094Z,99.90
2018-07-11T20:55:30.164Z,99.90
2018-07-11T20:58:17.757Z,99.90
2018-07-11T21:01:05.626Z,99.90
2018-07-11T21:03:59.685Z,99.90
2018-07-11T21:16:48.276Z,99.90
2018-07-11T21:19:25.676Z,99.90
2018-07-11T21:24:30.966Z,99.90
2018-07-11T21:29:34.736Z,99.90
2018-07-11T21:34:36.897Z,99.90
2018-07-11T21:37:10.605Z,99.90
2018-07-11T21:39:41.943Z,99.90
2018-07-11T21:42:14.447Z,99.90
2018-07-11T21:44:46.905Z,99.90
2018-07-11T21:47:18.413Z,99.90
2018-07-11T21:49:50.343Z,99.90
2018-07-11T21:52:22.661Z,99.90
2018-07-11T21:54:53.865Z,99.90
2018-07-11T21:57:25.180Z,99.90
2018-07-11T21:59:56.899Z,99.90
2018-07-11T22:02:28.531Z,99.90
2018-07-11T22:05:00.254Z,99.90
2018-07-11T22:07:33.630Z,99.90
2018-07-11T22:10:05.830Z,99.90
2018-07-11T22:12:37.211Z,99.90
2018-07-11T22:15:08.519Z,99.90
2018-07-11T22:18:54.531Z,99.90
2018-07-11T22:21:24.127Z,99.90
2018-07-11T22:23:53.062Z,99.90
2018-07-11T22:26:21.853Z,99.90
2018-07-11T22:28:50.639Z,99.90
2018-07-11T22:31:19.407Z,99.90
2018-07-11T22:33:48.219Z,99.90
2018-07-11T22:36:16.929Z,99.90
2018-07-11T22:38:45.695Z,99.90
2018-07-11T22:41:14.469Z,99.90
2018-07-11T22:43:43.234Z,99.90
2018-07-11T22:46:11.969Z,99.90
2018-07-11T22:48:40.727Z,99.90
2018-07-11T22:51:09.572Z,99.90
2018-07-11T22:56:07.230Z,99.90
2018-07-11T22:58:35.942Z,99.90
2018-07-11T23:03:33.560Z,99.90
2018-07-11T23:06:02.632Z,99.90
2018-07-11T23:08:31.876Z,99.90
2018-07-11T23:11:00.738Z,99.90
2018-07-11T23:13:29.531Z,99.90
2018-07-11T23:15:59.140Z,99.90
2018-07-11T23:18:27.909Z,99.90
2018-07-11T23:20:58.266Z,99.90
2018-07-11T23:23:27.047Z,99.90
2018-07-11T23:25:55.981Z,99.90
2018-07-11T23:28:24.711Z,99.90
2018-07-11T23:30:53.460Z,99.90
2018-07-11T23:33:22.221Z,99.90
2018-07-11T23:35:51.008Z,99.90
2018-07-11T23:38:19.736Z,99.90
2018-07-11T23:40:48.508Z,99.90
2018-07-11T23:43:17.385Z,99.90
2018-07-11T23:45:46.199Z,99.90
2018-07-11T23:50:43.919Z,99.90
2018-07-11T23:53:12.648Z,99.90
2018-07-11T23:55:41.493Z,99.90
2018-07-11T23:58:10.230Z,99.90
